Scarborough, United Kingdom
Current Conditions -  °F | °C
As of 7:50 AM on Thursday 29 Jan 2015 (Local Time) from EGXV Reporting Station
Broken Clouds Broken Clouds  
Wind Chill: -5°   Ceiling: 13000
Heat Index:   Visibility: NA
Dew Point: -1°   Wind: 16mph
Humidity: 87%   Direction: 250°WSW
Pressure: 28.94"   Gusts: NA
Location:  54.28°N, 0.4°W
Report Text: EGXV 290750Z AUTO 25014KT //// BKN130/// 01/M01 Q0980
Loading
Personal Weather Stations






























Interactive Weather Map New forecast layout! Learn more

10-Day Weather Forecast

Advertisements
Track Severe Weather on mobile